Time,TemperatureF,DewpointF,PressureIn,WindDirection,WindDirectionDegrees,WindSpeedMPH,WindSpeedGustMPH,Humidity,HourlyPrecipIn,Conditions,Clouds,dailyrainin,SoftwareType,DateUTC
2013-11-22 15:18:00,32.2,24.6,30.42,NW,315,3.4,3.4,73,0.00,,,0.00,WUHU216HW,2013-11-22 21:18:00,
2013-11-22 15:19:00,32.2,24.6,30.42,NW,315,3.4,3.4,73,0.00,,,0.00,WUHU216HW,2013-11-22 21:19:00,
2013-11-22 15:24:00,32.2,24.6,30.42,West,270,5.8,5.8,73,0.00,,,0.00,WUHU216HW,2013-11-22 21:24:00,
2013-11-22 15:29:00,32.0,24.4,30.42,WSW,248,6.3,7.8,73,0.00,,,0.00,WUHU216HW,2013-11-22 21:29:00,
2013-11-22 15:34:00,31.9,24.5,30.42,West,270,5.4,7.8,74,0.00,,,0.00,WUHU216HW,2013-11-22 21:34:00,
2013-11-22 15:39:00,31.7,24.3,30.42,West,270,1.8,6.7,74,0.00,,,0.00,WUHU216HW,2013-11-22 21:39:00,
2013-11-22 15:44:00,31.3,24.3,30.42,WSW,248,3.6,6.7,75,0.00,,,0.00,WUHU216HW,2013-11-22 21:44:00,
2013-11-22 15:49:00,31.3,24.3,30.42,WSW,248,5.1,5.1,75,0.00,,,0.00,WUHU216HW,2013-11-22 21:49:00,
2013-11-22 15:54:00,31.1,24.1,30.42,West,270,6.0,6.0,75,0.00,,,0.00,WUHU216HW,2013-11-22 21:54:00,
2013-11-22 15:59:00,31.1,24.1,30.42,WNW,293,2.2,6.3,75,0.00,,,0.00,WUHU216HW,2013-11-22 21:59:00,
2013-11-22 16:04:00,31.0,23.9,30.42,West,270,4.0,6.3,75,0.00,,,0.00,WUHU216HW,2013-11-22 22:04:00,
2013-11-22 16:10:00,30.8,23.8,30.42,SW,225,2.0,4.9,75,0.00,,,0.00,WUHU216HW,2013-11-22 22:10:00,
2013-11-22 16:15:00,30.2,23.6,30.42,West,270,4.5,4.9,76,0.00,,,0.00,WUHU216HW,2013-11-22 22:15:00,
2013-11-22 16:20:00,29.9,23.2,30.42,West,270,2.9,4.7,76,0.00,,,0.00,WUHU216HW,2013-11-22 22:20:00,
2013-11-22 16:25:00,29.5,22.5,30.41,West,270,2.5,4.7,75,0.00,,,0.00,WUHU216HW,2013-11-22 22:25:00,
2013-11-22 16:30:00,29.2,22.5,30.41,WSW,248,1.8,3.8,76,0.00,,,0.00,WUHU216HW,2013-11-22 22:30:00,
2013-11-22 16:35:00,28.8,22.1,30.41,WSW,248,1.6,3.1,76,0.00,,,0.00,WUHU216HW,2013-11-22 22:35:00,
2013-11-22 16:40:00,28.4,22.2,30.41,WSW,248,0.9,5.1,77,0.00,,,0.00,WUHU216HW,2013-11-22 22:40:00,
2013-11-22 16:45:00,28.1,21.8,30.41,West,270,2.5,5.1,77,0.00,,,0.00,WUHU216HW,2013-11-22 22:45:00,
2013-11-22 16:50:00,27.7,21.7,30.41,WSW,248,2.2,4.5,78,0.00,,,0.00,WUHU216HW,2013-11-22 22:50:00,
2013-11-22 16:55:00,27.7,21.7,30.40,West,270,4.7,5.1,78,0.00,,,0.00,WUHU216HW,2013-11-22 22:55:00,
2013-11-22 17:00:00,27.5,21.9,30.40,WSW,248,2.5,5.1,79,0.00,,,0.00,WUHU216HW,2013-11-22 23:00:00,
2013-11-22 17:05:00,27.4,21.7,30.40,WSW,248,3.6,4.3,79,0.00,,,0.00,WUHU216HW,2013-11-22 23:05:00,
2013-11-22 17:10:00,27.2,21.5,30.40,WSW,248,2.2,5.4,79,0.00,,,0.00,WUHU216HW,2013-11-22 23:10:00,
2013-11-22 17:15:00,27.0,21.3,30.40,WSW,248,1.8,5.4,79,0.00,,,0.00,WUHU216HW,2013-11-22 23:15:00,
2013-11-22 17:20:00,26.8,21.2,30.40,WSW,248,2.2,4.5,79,0.00,,,0.00,WUHU216HW,2013-11-22 23:20:00,
2013-11-22 17:25:00,26.6,21.0,30.40,WSW,248,3.1,3.1,79,0.00,,,0.00,WUHU216HW,2013-11-22 23:25:00,
2013-11-22 17:30:00,26.5,20.8,30.40,WSW,248,2.0,3.1,79,0.00,,,0.00,WUHU216HW,2013-11-22 23:30:00,
2013-11-22 17:35:00,26.3,20.9,30.40,WSW,248,1.3,2.5,80,0.00,,,0.00,WUHU216HW,2013-11-22 23:35:00,
2013-11-22 17:40:00,25.9,20.6,30.39,WSW,248,1.3,2.5,80,0.00,,,0.00,WUHU216HW,2013-11-22 23:40:00,
2013-11-22 17:45:00,25.6,20.3,30.39,SW,225,1.8,2.0,80,0.00,,,0.00,WUHU216HW,2013-11-22 23:45:00,
2013-11-22 17:51:00,25.4,20.3,30.39,WSW,248,1.3,1.8,81,0.00,,,0.00,WUHU216HW,2013-11-22 23:51:00,
2013-11-22 17:56:00,25.2,20.0,30.40,WSW,248,1.3,1.8,80,0.00,,,0.00,WUHU216HW,2013-11-22 23:56:00,
2013-11-22 18:01:00,25.0,19.8,30.40,SW,225,1.1,2.0,80,0.00,,,0.00,WUHU216HW,2013-11-23 00:01:00,
2013-11-22 18:06:00,24.8,19.6,30.40,WSW,248,2.5,2.5,80,0.00,,,0.00,WUHU216HW,2013-11-23 00:06:00,
2013-11-22 18:11:00,24.7,19.7,30.39,SW,225,2.0,2.5,81,0.00,,,0.00,WUHU216HW,2013-11-23 00:11:00,
2013-11-22 18:16:00,24.5,19.5,30.39,SW,225,1.6,2.0,81,0.00,,,0.00,WUHU216HW,2013-11-23 00:16:00,
2013-11-22 18:21:00,24.3,19.4,30.39,SW,225,1.1,2.0,81,0.00,,,0.00,WUHU216HW,2013-11-23 00:21:00,
2013-11-22 18:26:00,24.1,19.2,30.39,SSW,203,1.8,2.5,81,0.00,,,0.00,WUHU216HW,2013-11-23 00:26:00,
2013-11-22 18:31:00,24.1,19.4,30.39,SW,225,1.8,2.5,82,0.00,,,0.00,WUHU216HW,2013-11-23 00:31:00,
2013-11-22 18:36:00,23.9,19.3,30.39,SW,225,1.1,2.2,82,0.00,,,0.00,WUHU216HW,2013-11-23 00:36:00,
2013-11-22 18:41:00,24.1,19.7,30.39,SW,225,1.1,2.5,83,0.00,,,0.00,WUHU216HW,2013-11-23 00:41:00,
2013-11-22 18:46:00,24.3,20.2,30.39,WSW,248,2.2,2.5,84,0.00,,,0.00,WUHU216HW,2013-11-23 00:46:00,
2013-11-22 18:51:00,24.5,20.3,30.39,SSW,203,1.8,2.5,84,0.00,,,0.00,WUHU216HW,2013-11-23 00:51:00,
2013-11-22 18:56:00,24.5,20.3,30.39,SSW,203,0.4,2.5,84,0.00,,,0.00,WUHU216HW,2013-11-23 00:56:00,
2013-11-22 19:01:00,24.5,20.1,30.39,SSW,203,1.8,2.2,83,0.00,,,0.00,WUHU216HW,2013-11-23 01:01:00,
2013-11-22 19:06:00,24.5,20.1,30.39,SSW,203,1.8,2.7,83,0.00,,,0.00,WUHU216HW,2013-11-23 01:06:00,
2013-11-22 19:11:00,24.3,19.9,30.39,SSW,203,0.7,2.7,83,0.00,,,0.00,WUHU216HW,2013-11-23 01:11:00,
2013-11-22 19:16:00,24.1,19.7,30.39,SSW,203,0.9,1.3,83,0.00,,,0.00,WUHU216HW,2013-11-23 01:16:00,
2013-11-22 19:21:00,24.1,19.7,30.39,SW,225,0.4,1.6,83,0.00,,,0.00,WUHU216HW,2013-11-23 01:21:00,
2013-11-22 19:26:00,23.8,19.4,30.39,SSW,203,1.3,1.8,83,0.00,,,0.00,WUHU216HW,2013-11-23 01:26:00,
2013-11-22 19:31:00,23.8,19.4,30.38,South,180,0.7,1.8,83,0.00,,,0.00,WUHU216HW,2013-11-23 01:31:00,
2013-11-22 19:36:00,23.6,18.9,30.38,SW,225,1.8,1.8,82,0.00,,,0.00,WUHU216HW,2013-11-23 01:36:00,
2013-11-22 19:41:00,23.6,19.2,30.38,SSW,203,0.0,1.8,83,0.00,,,0.00,WUHU216HW,2013-11-23 01:41:00,
2013-11-22 19:46:00,23.4,18.7,30.38,SSW,203,0.2,0.9,82,0.00,,,0.00,WUHU216HW,2013-11-23 01:46:00,
2013-11-22 19:51:00,23.2,18.8,30.38,SSW,203,0.0,0.9,83,0.00,,,0.00,WUHU216HW,2013-11-23 01:51:00,
2013-11-22 19:56:00,23.2,18.8,30.38,WSW,248,1.8,1.8,83,0.00,,,0.00,WUHU216HW,2013-11-23 01:56:00,
2013-11-22 20:02:00,23.2,18.8,30.38,WSW,248,0.0,1.8,83,0.00,,,0.00,WUHU216HW,2013-11-23 02:02:00,
2013-11-22 20:07:00,23.0,18.6,30.38,WSW,248,0.4,0.7,83,0.00,,,0.00,WUHU216HW,2013-11-23 02:07:00,
2013-11-22 20:12:00,23.0,18.6,30.38,WSW,248,0.0,0.7,83,0.00,,,0.00,WUHU216HW,2013-11-23 02:12:00,
2013-11-22 20:17:00,23.4,19.3,30.38,WSW,248,0.4,0.4,84,0.00,,,0.00,WUHU216HW,2013-11-23 02:17:00,
2013-11-22 20:22:00,23.4,19.0,30.38,WSW,248,2.9,2.9,83,0.00,,,0.00,WUHU216HW,2013-11-23 02:22:00,
2013-11-22 20:27:00,23.4,19.0,30.38,WSW,248,2.5,3.4,83,0.00,,,0.00,WUHU216HW,2013-11-23 02:27:00,
2013-11-22 20:32:00,23.2,18.8,30.38,SW,225,1.1,3.6,83,0.00,,,0.00,WUHU216HW,2013-11-23 02:32:00,
2013-11-22 20:37:00,23.4,19.3,30.38,WSW,248,3.4,4.7,84,0.00,,,0.00,WUHU216HW,2013-11-23 02:37:00,
2013-11-22 20:42:00,23.4,19.0,30.38,SSW,203,1.6,4.7,83,0.00,,,0.00,WUHU216HW,2013-11-23 02:42:00,
2013-11-22 20:47:00,23.4,19.0,30.38,WSW,248,1.8,2.5,83,0.00,,,0.00,WUHU216HW,2013-11-23 02:47:00,
2013-11-22 20:52:00,23.2,18.8,30.38,WSW,248,1.1,2.7,83,0.00,,,0.00,WUHU216HW,2013-11-23 02:52:00,
2013-11-22 20:57:00,23.0,18.6,30.38,SW,225,2.0,2.7,83,0.00,,,0.00,WUHU216HW,2013-11-23 02:57:00,
2013-11-22 21:02:00,23.0,18.6,30.37,WNW,293,2.7,2.7,83,0.00,,,0.00,WUHU216HW,2013-11-23 03:02:00,
2013-11-22 21:07:00,22.7,18.3,30.38,WSW,248,1.8,4.3,83,0.00,,,0.00,WUHU216HW,2013-11-23 03:07:00,
2013-11-22 21:12:00,22.7,18.3,30.37,WSW,248,2.7,4.3,83,0.00,,,0.00,WUHU216HW,2013-11-23 03:12:00,
2013-11-22 21:17:00,22.7,18.5,30.37,SSW,203,1.3,2.7,84,0.00,,,0.00,WUHU216HW,2013-11-23 03:17:00,
2013-11-22 21:22:00,22.5,18.1,30.37,SW,225,1.3,2.9,83,0.00,,,0.00,WUHU216HW,2013-11-23 03:22:00,
2013-11-22 21:27:00,22.3,17.9,30.37,SSW,203,2.0,2.9,83,0.00,,,0.00,WUHU216HW,2013-11-23 03:27:00,
2013-11-22 21:32:00,22.1,17.7,30.37,WSW,248,1.6,2.2,83,0.00,,,0.00,WUHU216HW,2013-11-23 03:32:00,
2013-11-22 21:37:00,22.1,18.0,30.37,WSW,248,1.8,4.5,84,0.00,,,0.00,WUHU216HW,2013-11-23 03:37:00,
2013-11-22 21:42:00,22.0,17.8,30.37,WSW,248,0.7,4.5,84,0.00,,,0.00,WUHU216HW,2013-11-23 03:42:00,
2013-11-22 21:47:00,22.0,17.8,30.37,West,270,4.0,4.0,84,0.00,,,0.00,WUHU216HW,2013-11-23 03:47:00,
2013-11-22 21:52:00,22.0,17.8,30.37,SW,225,4.0,4.0,84,0.00,,,0.00,WUHU216HW,2013-11-23 03:52:00,
2013-11-22 21:57:00,22.0,17.8,30.37,West,270,2.5,4.0,84,0.00,,,0.00,WUHU216HW,2013-11-23 03:57:00,
2013-11-22 22:02:00,22.1,18.0,30.37,West,270,2.2,4.0,84,0.00,,,0.00,WUHU216HW,2013-11-23 04:02:00,
2013-11-22 22:07:00,22.1,18.0,30.37,SSE,158,2.0,4.0,84,0.00,,,0.00,WUHU216HW,2013-11-23 04:07:00,
2013-11-22 22:12:00,22.1,18.0,30.37,SSW,203,2.5,5.6,84,0.00,,,0.00,WUHU216HW,2013-11-23 04:12:00,
2013-11-22 22:18:00,22.5,18.4,30.37,WSW,248,4.0,5.6,84,0.00,,,0.00,WUHU216HW,2013-11-23 04:18:00,
2013-11-22 22:23:00,22.7,18.5,30.37,West,270,4.3,5.6,84,0.00,,,0.00,WUHU216HW,2013-11-23 04:23:00,
2013-11-22 22:28:00,22.7,18.5,30.37,West,270,4.0,5.6,84,0.00,,,0.00,WUHU216HW,2013-11-23 04:28:00,
2013-11-22 22:33:00,22.7,18.3,30.37,West,270,5.8,5.8,83,0.00,,,0.00,WUHU216HW,2013-11-23 04:33:00,
2013-11-22 22:38:00,22.7,18.3,30.37,West,270,4.5,6.7,83,0.00,,,0.00,WUHU216HW,2013-11-23 04:38:00,
2013-11-22 22:43:00,22.7,18.3,30.37,WSW,248,4.0,6.7,83,0.00,,,0.00,WUHU216HW,2013-11-23 04:43:00,
2013-11-22 22:48:00,22.7,18.0,30.37,West,270,2.9,5.1,82,0.00,,,0.00,WUHU216HW,2013-11-23 04:48:00,
2013-11-22 22:53:00,22.5,17.8,30.37,WSW,248,6.9,7.8,82,0.00,,,0.00,WUHU216HW,2013-11-23 04:53:00,
2013-11-22 22:58:00,22.5,17.8,30.36,WSW,248,2.5,7.8,82,0.00,,,0.00,WUHU216HW,2013-11-23 04:58:00,
2013-11-22 23:01:00,22.5,17.8,30.36,WSW,248,3.1,6.9,82,0.00,,,0.00,WUHU216HW,2013-11-23 05:01:00,
2013-11-22 23:06:00,22.3,17.6,30.36,WSW,248,1.1,6.3,82,0.00,,,0.00,WUHU216HW,2013-11-23 05:06:00,
2013-11-22 23:11:00,22.3,17.6,30.36,SW,225,1.8,3.4,82,0.00,,,0.00,WUHU216HW,2013-11-23 05:11:00,
2013-11-22 23:16:00,22.0,17.3,30.36,SSW,203,1.8,4.0,82,0.00,,,0.00,WUHU216HW,2013-11-23 05:16:00,
2013-11-22 23:22:00,22.0,17.3,30.36,SSW,203,0.9,3.4,82,0.00,,,0.00,WUHU216HW,2013-11-23 05:22:00,
2013-11-22 23:27:00,21.6,16.9,30.36,WSW,248,2.5,2.7,82,0.00,,,0.00,WUHU216HW,2013-11-23 05:27:00,
2013-11-22 23:32:00,21.6,16.9,30.36,WSW,248,1.3,3.8,82,0.00,,,0.00,WUHU216HW,2013-11-23 05:32:00,
2013-11-22 23:37:00,21.4,16.7,30.36,WSW,248,3.6,3.8,82,0.00,,,0.00,WUHU216HW,2013-11-23 05:37:00,
2013-11-22 23:42:00,21.4,16.7,30.36,WSW,248,3.1,4.3,82,0.00,,,0.00,WUHU216HW,2013-11-23 05:42:00,
2013-11-22 23:47:00,21.2,16.6,30.35,WSW,248,2.2,4.3,82,0.00,,,0.00,WUHU216HW,2013-11-23 05:47:00,
2013-11-22 23:52:00,21.2,16.6,30.35,SW,225,2.2,3.8,82,0.00,,,0.00,WUHU216HW,2013-11-23 05:52:00,
2013-11-22 23:57:00,21.1,16.4,30.35,WSW,248,1.6,3.4,82,0.00,,,0.00,WUHU216HW,2013-11-23 05:57:00,